Time;durP1;ratioP1;P1;durP2;ratioP2;P2;SDS_P1;SDS_P2;PMS_P1;PMS_P2;Temp;Humidity;BMP_temperature;BMP_pressure;BME280_temperature;BME280_humidity;BME280_pressure;Samples;Min_cycle;Max_cycle;Signal;HPM_P1;HPM_P2
2024/04/26 00:01:38;;;;;;;4.95;2.58;;;;;;;;;;5439813;26;20019;-65
2024/04/26 00:04:06;;;;;;;7.18;2.55;;;;;;;;;;5452388;26;20381;-67
2024/04/26 00:06:32;;;;;;;3.15;2.20;;;;;;;;;;5435743;26;20026;-65
2024/04/26 00:08:58;;;;;;;6.55;2.45;;;;;;;;;;5443412;26;20473;-65
2024/04/26 00:11:24;;;;;;;4.65;2.17;;;;;;;;;;5447187;26;20027;-65
2024/04/26 00:13:50;;;;;;;5.20;2.63;;;;;;;;;;5459292;26;20041;-65
2024/04/26 00:16:17;;;;;;;4.88;2.88;;;;;;;;;;5457483;26;20035;-65
2024/04/26 00:18:43;;;;;;;4.63;2.13;;;;;;;;;;5407665;26;20371;-65
2024/04/26 00:21:09;;;;;;;4.30;2.10;;;;;;;;;;5441502;26;20022;-65
2024/04/26 00:23:37;;;;;;;6.65;3.08;;;;;;;;;;5446987;26;20032;-65
2024/04/26 00:26:08;;;;;;;5.47;2.00;;;;;;;;;;5445394;26;20054;-66
2024/04/26 00:28:34;;;;;;;5.75;2.63;;;;;;;;;;5432829;26;20056;-65
2024/04/26 00:31:00;;;;;;;5.65;2.60;;;;;;;;;;5448095;26;20498;-65
2024/04/26 00:33:26;;;;;;;6.75;2.20;;;;;;;;;;5416627;26;20026;-67
2024/04/26 00:35:52;;;;;;;3.38;2.13;;;;;;;;;;5384407;26;20031;-65
2024/04/26 00:38:18;;;;;;;4.10;2.50;;;;;;;;;;5416853;26;20022;-65
2024/04/26 00:40:45;;;;;;;4.57;2.35;;;;;;;;;;5439777;26;20027;-66
2024/04/26 00:43:11;;;;;;;5.90;2.65;;;;;;;;;;5411499;26;20494;-66
2024/04/26 00:45:37;;;;;;;7.47;2.97;;;;;;;;;;5419086;26;20030;-65
2024/04/26 00:48:03;;;;;;;4.38;2.33;;;;;;;;;;5448829;26;20043;-65
2024/04/26 00:50:29;;;;;;;4.65;2.40;;;;;;;;;;5418837;26;20039;-65
2024/04/26 00:52:56;;;;;;;3.80;2.47;;;;;;;;;;5451317;26;20023;-65
2024/04/26 00:55:22;;;;;;;10.45;3.15;;;;;;;;;;5449457;26;20039;-65
2024/04/26 00:57:49;;;;;;;4.68;2.72;;;;;;;;;;5454694;26;20031;-65
2024/04/26 01:00:15;;;;;;;5.53;2.72;;;;;;;;;;5421911;26;20077;-65
2024/04/26 01:02:42;;;;;;;5.90;2.50;;;;;;;;;;5458631;26;20022;-65
2024/04/26 01:05:08;;;;;;;7.55;2.58;;;;;;;;;;5447139;26;20400;-66
2024/04/26 01:07:34;;;;;;;5.35;2.78;;;;;;;;;;5450307;26;20022;-66
2024/04/26 01:10:00;;;;;;;4.40;2.55;;;;;;;;;;5450807;26;20391;-66
2024/04/26 01:12:26;;;;;;;4.07;2.55;;;;;;;;;;5448796;26;20018;-66
2024/04/26 01:14:53;;;;;;;5.15;2.47;;;;;;;;;;5439082;26;20388;-65
2024/04/26 01:17:19;;;;;;;8.60;3.08;;;;;;;;;;5448551;26;20050;-65
2024/04/26 01:19:45;;;;;;;7.97;3.00;;;;;;;;;;5434146;26;20028;-65
2024/04/26 01:22:26;;;;;;;4.13;2.70;;;;;;;;;;5445138;26;20039;-65
2024/04/26 01:24:53;;;;;;;7.03;2.92;;;;;;;;;;5445801;26;20035;-65
2024/04/26 01:27:19;;;;;;;5.15;2.78;;;;;;;;;;5448113;26;20039;-66
2024/04/26 01:29:45;;;;;;;5.80;2.67;;;;;;;;;;5440293;26;20044;-65
2024/04/26 01:32:11;;;;;;;5.13;2.70;;;;;;;;;;5448685;26;20034;-65
2024/04/26 01:34:37;;;;;;;4.82;3.03;;;;;;;;;;5444641;26;20039;-66
2024/04/26 01:37:05;;;;;;;9.13;3.03;;;;;;;;;;5447315;26;20026;-65
2024/04/26 01:39:31;;;;;;;7.93;3.13;;;;;;;;;;5446215;26;20026;-66
2024/04/26 01:41:57;;;;;;;5.25;3.00;;;;;;;;;;5449429;26;20046;-65
2024/04/26 01:44:23;;;;;;;5.45;2.95;;;;;;;;;;5443669;26;20047;-65
2024/04/26 01:46:49;;;;;;;5.57;2.60;;;;;;;;;;5448728;26;20108;-66
2024/04/26 01:49:15;;;;;;;7.50;2.65;;;;;;;;;;5439784;26;20393;-65
2024/04/26 01:51:41;;;;;;;8.52;2.78;;;;;;;;;;5416376;26;20370;-65
2024/04/26 01:54:08;;;;;;;4.88;2.60;;;;;;;;;;5454089;26;20030;-65
2024/04/26 01:56:34;;;;;;;4.85;2.38;;;;;;;;;;5450282;26;20027;-64
2024/04/26 01:59:00;;;;;;;5.68;2.35;;;;;;;;;;5447016;26;20482;-64
2024/04/26 02:01:29;;;;;;;4.25;2.30;;;;;;;;;;5447971;26;20018;-65
2024/04/26 02:03:56;;;;;;;6.95;2.85;;;;;;;;;;5458013;26;20026;-66
2024/04/26 02:06:22;;;;;;;10.02;2.85;;;;;;;;;;5446947;26;20109;-66
2024/04/26 02:08:48;;;;;;;3.95;2.20;;;;;;;;;;5449079;26;20035;-65
2024/04/26 02:11:14;;;;;;;4.72;2.60;;;;;;;;;;5418325;26;20519;-65
2024/04/26 02:13:41;;;;;;;5.85;2.78;;;;;;;;;;5461702;26;20030;-65
2024/04/26 02:16:08;;;;;;;4.78;2.47;;;;;;;;;;5450142;26;20035;-65
2024/04/26 02:18:34;;;;;;;6.43;2.75;;;;;;;;;;5447489;26;20030;-65
2024/04/26 02:21:00;;;;;;;7.30;2.53;;;;;;;;;;5444685;26;20036;-65
2024/04/26 02:23:26;;;;;;;4.57;2.35;;;;;;;;;;5438238;26;20026;-66
2024/04/26 02:25:52;;;;;;;5.25;2.40;;;;;;;;;;5448564;26;20038;-65
2024/04/26 02:28:18;;;;;;;3.92;2.50;;;;;;;;;;5442851;26;20381;-65
2024/04/26 02:30:44;;;;;;;4.00;2.22;;;;;;;;;;5441362;26;20035;-66
2024/04/26 02:33:11;;;;;;;5.95;2.53;;;;;;;;;;5448249;26;20035;-65
2024/04/26 02:35:37;;;;;;;4.00;2.55;;;;;;;;;;5443930;26;20030;-66
2024/04/26 02:38:03;;;;;;;4.00;2.15;;;;;;;;;;5445205;26;20368;-65
2024/04/26 02:40:29;;;;;;;3.30;2.33;;;;;;;;;;5441307;26;20031;-65
2024/04/26 02:42:55;;;;;;;6.32;2.83;;;;;;;;;;5444462;26;20371;-65
2024/04/26 02:45:21;;;;;;;5.47;2.65;;;;;;;;;;5445392;26;20038;-66
2024/04/26 02:47:48;;;;;;;4.88;2.63;;;;;;;;;;5451767;26;20035;-67
2024/04/26 02:50:14;;;;;;;6.65;2.60;;;;;;;;;;5404719;26;20035;-67
2024/04/26 02:52:40;;;;;;;3.90;2.55;;;;;;;;;;5380815;26;20494;-68
2024/04/26 02:55:06;;;;;;;5.18;2.60;;;;;;;;;;5413390;26;20039;-66
2024/04/26 02:57:33;;;;;;;5.57;2.45;;;;;;;;;;5389768;26;20036;-68
2024/04/26 02:59:59;;;;;;;5.85;2.50;;;;;;;;;;5441505;26;20486;-68
2024/04/26 03:02:25;;;;;;;5.93;2.78;;;;;;;;;;5383898;26;20046;-68
2024/04/26 03:04:51;;;;;;;6.32;2.50;;;;;;;;;;5365186;26;20454;-67
2024/04/26 03:07:17;;;;;;;4.55;2.42;;;;;;;;;;5410848;26;20388;-66
2024/04/26 03:09:44;;;;;;;3.55;2.72;;;;;;;;;;5411767;26;20043;-65
2024/04/26 03:12:10;;;;;;;6.97;2.80;;;;;;;;;;5448436;26;20403;-65
2024/04/26 03:14:37;;;;;;;6.03;3.15;;;;;;;;;;5448605;26;20030;-66
2024/04/26 03:17:04;;;;;;;5.97;2.33;;;;;;;;;;5449183;26;20382;-66
2024/04/26 03:19:30;;;;;;;3.83;2.17;;;;;;;;;;5448519;26;20383;-65
2024/04/26 03:21:56;;;;;;;3.47;2.17;;;;;;;;;;5436132;26;20492;-65
2024/04/26 03:24:24;;;;;;;5.78;2.50;;;;;;;;;;5449124;26;20394;-65
2024/04/26 03:26:51;;;;;;;3.90;2.50;;;;;;;;;;5446835;26;20023;-65
2024/04/26 03:29:17;;;;;;;3.88;2.60;;;;;;;;;;5444324;26;20023;-65
2024/04/26 03:31:43;;;;;;;5.00;2.50;;;;;;;;;;5442787;26;20038;-65
2024/04/26 03:34:09;;;;;;;5.10;2.50;;;;;;;;;;5448222;26;20050;-65
2024/04/26 03:36:35;;;;;;;4.50;2.63;;;;;;;;;;5444719;26;20385;-66
2024/04/26 03:39:01;;;;;;;5.38;2.60;;;;;;;;;;5427356;26;20043;-65
2024/04/26 03:41:27;;;;;;;4.28;2.55;;;;;;;;;;5445866;26;20502;-66
2024/04/26 03:43:53;;;;;;;6.43;2.92;;;;;;;;;;5416769;26;20369;-66
2024/04/26 03:46:19;;;;;;;8.00;2.75;;;;;;;;;;5441260;26;20031;-66
2024/04/26 03:48:47;;;;;;;5.38;2.40;;;;;;;;;;5446779;26;20032;-67
2024/04/26 03:51:13;;;;;;;5.78;3.30;;;;;;;;;;5440421;26;20027;-66
2024/04/26 03:53:39;;;;;;;6.18;3.17;;;;;;;;;;5444882;26;20031;-66
2024/04/26 03:56:05;;;;;;;5.82;3.10;;;;;;;;;;5447460;26;20047;-65
2024/04/26 03:58:31;;;;;;;4.15;2.35;;;;;;;;;;5443792;26;20031;-64
2024/04/26 04:00:57;;;;;;;7.88;2.60;;;;;;;;;;5443152;26;20046;-66
2024/04/26 04:03:23;;;;;;;7.28;2.70;;;;;;;;;;5445424;26;20022;-65
2024/04/26 04:05:50;;;;;;;6.13;2.47;;;;;;;;;;5455122;26;20022;-65
2024/04/26 04:08:17;;;;;;;6.47;2.88;;;;;;;;;;5451021;26;20022;-65
2024/04/26 04:10:43;;;;;;;5.32;2.63;;;;;;;;;;5440774;26;20503;-65
2024/04/26 04:13:09;;;;;;;5.55;2.92;;;;;;;;;;5449070;26;20024;-65
2024/04/26 04:15:35;;;;;;;7.55;2.42;;;;;;;;;;5449294;26;20039;-65
2024/04/26 04:18:01;;;;;;;6.82;2.58;;;;;;;;;;5413329;26;20027;-66
2024/04/26 04:20:28;;;;;;;6.03;2.90;;;;;;;;;;5440378;26;20038;-66
2024/04/26 04:22:54;;;;;;;4.22;2.55;;;;;;;;;;5403978;26;20486;-66
2024/04/26 04:25:20;;;;;;;5.30;2.65;;;;;;;;;;5450343;26;20023;-66
2024/04/26 04:27:46;;;;;;;7.53;2.80;;;;;;;;;;5442409;26;20031;-65
2024/04/26 04:30:12;;;;;;;6.13;2.53;;;;;;;;;;5413154;26;20026;-65
2024/04/26 04:32:39;;;;;;;7.38;2.97;;;;;;;;;;5437153;26;20038;-66
2024/04/26 04:35:05;;;;;;;9.57;2.88;;;;;;;;;;5450787;26;20042;-66
2024/04/26 04:37:31;;;;;;;3.75;2.50;;;;;;;;;;5441975;26;20030;-65
2024/04/26 04:39:57;;;;;;;4.13;2.40;;;;;;;;;;5441106;26;20027;-65
2024/04/26 04:42:23;;;;;;;7.28;2.88;;;;;;;;;;5436832;26;20498;-62
2024/04/26 04:44:49;;;;;;;7.03;2.90;;;;;;;;;;5450529;26;20027;-62
2024/04/26 04:47:15;;;;;;;5.28;2.80;;;;;;;;;;5446018;26;20027;-62
2024/04/26 04:49:41;;;;;;;5.65;3.13;;;;;;;;;;5451538;26;20030;-61
2024/04/26 04:52:08;;;;;;;5.47;2.83;;;;;;;;;;5450298;26;20023;-61
2024/04/26 04:54:34;;;;;;;5.05;2.47;;;;;;;;;;5451636;26;20027;-62
2024/04/26 04:57:00;;;;;;;5.45;2.42;;;;;;;;;;5452715;26;20039;-62
2024/04/26 04:59:26;;;;;;;4.90;2.80;;;;;;;;;;5448796;26;20034;-62
2024/04/26 05:01:52;;;;;;;5.65;3.05;;;;;;;;;;5418450;26;20482;-63
2024/04/26 05:04:19;;;;;;;5.65;2.05;;;;;;;;;;5458869;26;20031;-63
2024/04/26 05:06:45;;;;;;;5.78;2.45;;;;;;;;;;5457730;26;20565;-62
2024/04/26 05:09:11;;;;;;;6.60;2.90;;;;;;;;;;5457057;26;20035;-62
2024/04/26 05:11:37;;;;;;;5.93;2.65;;;;;;;;;;5448877;26;20026;-61
2024/04/26 05:14:03;;;;;;;3.60;2.35;;;;;;;;;;5448232;26;20050;-61
2024/04/26 05:16:30;;;;;;;7.00;2.13;;;;;;;;;;5449200;26;20039;-62
2024/04/26 05:18:56;;;;;;;6.60;2.75;;;;;;;;;;5435041;26;20036;-62
2024/04/26 05:21:22;;;;;;;4.75;2.30;;;;;;;;;;5415542;26;20028;-63
2024/04/26 05:23:48;;;;;;;6.03;2.40;;;;;;;;;;5439690;26;20030;-63
2024/04/26 05:26:14;;;;;;;4.97;2.58;;;;;;;;;;5459332;26;20030;-62
2024/04/26 05:28:40;;;;;;;5.00;2.40;;;;;;;;;;5452112;26;20384;-62
2024/04/26 05:31:07;;;;;;;7.13;2.92;;;;;;;;;;5450676;26;20035;-61
2024/04/26 05:33:33;;;;;;;4.63;2.58;;;;;;;;;;5444070;26;20490;-62
2024/04/26 05:35:59;;;;;;;5.53;2.60;;;;;;;;;;5448022;26;20042;-61
2024/04/26 05:38:25;;;;;;;6.70;2.63;;;;;;;;;;5449632;26;20023;-62
2024/04/26 05:40:51;;;;;;;4.38;2.50;;;;;;;;;;5448617;26;20035;-62
2024/04/26 05:43:18;;;;;;;4.35;2.53;;;;;;;;;;5451353;26;20484;-61
2024/04/26 05:45:44;;;;;;;6.03;2.40;;;;;;;;;;5450688;26;20380;-63
2024/04/26 05:48:11;;;;;;;5.00;2.17;;;;;;;;;;5451579;26;20093;-61
2024/04/26 05:50:37;;;;;;;4.35;2.33;;;;;;;;;;5449667;26;20035;-62
2024/04/26 05:53:07;;;;;;;6.50;2.70;;;;;;;;;;5449643;26;20502;-62
2024/04/26 05:55:33;;;;;;;;;;;;;;;;;;5451027;26;20498;-63
2024/04/26 05:57:59;;;;;;;5.57;2.30;;;;;;;;;;5450305;26;19956;-62
2024/04/26 06:00:25;;;;;;;5.38;2.38;;;;;;;;;;5420036;26;20035;-62
2024/04/26 06:02:55;;;;;;;3.83;2.30;;;;;;;;;;5451558;26;20023;-62
2024/04/26 06:05:21;;;;;;;3.50;2.28;;;;;;;;;;5391257;26;20035;-62
2024/04/26 06:07:47;;;;;;;6.35;2.35;;;;;;;;;;5451399;26;20034;-62
2024/04/26 06:10:13;;;;;;;3.22;2.08;;;;;;;;;;5448478;26;20027;-62
2024/04/26 06:12:41;;;;;;;4.10;2.60;;;;;;;;;;5412513;26;20036;-62
2024/04/26 06:15:07;;;;;;;3.83;2.45;;;;;;;;;;5445362;26;20031;-61
2024/04/26 06:17:34;;;;;;;5.65;2.42;;;;;;;;;;5437812;26;20010;-62
2024/04/26 06:20:00;;;;;;;4.55;2.45;;;;;;;;;;5449451;26;20046;-63
2024/04/26 06:22:26;;;;;;;7.20;3.08;;;;;;;;;;5457901;26;20022;-62
2024/04/26 06:24:52;;;;;;;5.78;2.25;;;;;;;;;;5450862;26;20032;-62
2024/04/26 06:27:18;;;;;;;5.68;2.50;;;;;;;;;;5444349;26;20383;-63
2024/04/26 06:29:44;;;;;;;4.70;2.35;;;;;;;;;;5415202;26;20030;-62
2024/04/26 06:32:10;;;;;;;6.63;3.03;;;;;;;;;;5446582;26;20030;-63
2024/04/26 06:34:37;;;;;;;3.05;2.50;;;;;;;;;;5407129;26;20372;-62
2024/04/26 06:37:06;;;;;;;4.38;2.33;;;;;;;;;;5421210;26;20031;-62
2024/04/26 06:39:34;;;;;;;5.30;2.58;;;;;;;;;;5406715;26;20035;-63
2024/04/26 06:42:00;;;;;;;3.67;2.10;;;;;;;;;;5404675;26;20013;-63
2024/04/26 06:44:26;;;;;;;3.67;2.58;;;;;;;;;;5442015;26;20070;-62
2024/04/26 06:46:53;;;;;;;4.43;2.88;;;;;;;;;;5450940;26;20027;-62
2024/04/26 06:49:20;;;;;;;3.45;2.40;;;;;;;;;;5444862;26;20039;-63
2024/04/26 06:51:47;;;;;;;4.15;2.25;;;;;;;;;;5447147;26;20499;-63
2024/04/26 06:54:13;;;;;;;4.32;2.95;;;;;;;;;;5443165;26;20035;-63
2024/04/26 06:56:39;;;;;;;3.88;2.30;;;;;;;;;;5419834;26;20502;-63
2024/04/26 06:59:05;;;;;;;5.45;2.97;;;;;;;;;;5444016;26;20047;-65
2024/04/26 07:01:31;;;;;;;4.25;2.58;;;;;;;;;;5444106;26;20039;-62
2024/04/26 07:03:57;;;;;;;4.50;2.55;;;;;;;;;;5446498;26;20038;-63
2024/04/26 07:06:23;;;;;;;4.05;2.38;;;;;;;;;;5450715;26;20384;-63
2024/04/26 07:08:49;;;;;;;7.20;3.00;;;;;;;;;;5415234;26;20045;-63
2024/04/26 07:11:15;;;;;;;4.15;2.70;;;;;;;;;;5447387;26;20031;-63
2024/04/26 07:13:42;;;;;;;3.60;2.55;;;;;;;;;;5444931;26;20042;-62
2024/04/26 07:16:08;;;;;;;6.90;2.90;;;;;;;;;;5448415;26;20039;-63
2024/04/26 07:18:34;;;;;;;6.13;2.88;;;;;;;;;;5453152;26;20034;-63
2024/04/26 07:21:00;;;;;;;4.32;2.65;;;;;;;;;;5443669;26;20448;-62
2024/04/26 07:23:26;;;;;;;4.10;2.60;;;;;;;;;;5449542;26;20027;-62
2024/04/26 07:25:54;;;;;;;5.30;2.83;;;;;;;;;;5444796;26;20039;-62
2024/04/26 07:28:21;;;;;;;5.43;2.78;;;;;;;;;;5443019;26;20031;-62
2024/04/26 07:30:48;;;;;;;5.00;2.78;;;;;;;;;;5444153;26;20023;-62
2024/04/26 07:33:14;;;;;;;4.43;2.78;;;;;;;;;;5447227;26;20381;-63
2024/04/26 07:35:40;;;;;;;4.30;2.70;;;;;;;;;;5443178;26;20031;-62
2024/04/26 07:38:08;;;;;;;3.15;2.40;;;;;;;;;;5442934;26;20026;-63
2024/04/26 07:40:34;;;;;;;5.10;2.70;;;;;;;;;;5446281;26;20030;-63
2024/04/26 07:43:01;;;;;;;4.78;2.75;;;;;;;;;;5448584;26;20038;-63
2024/04/26 07:45:27;;;;;;;5.38;2.50;;;;;;;;;;5416528;26;20078;-63
2024/04/26 07:47:53;;;;;;;4.72;2.17;;;;;;;;;;5451376;26;20023;-63
2024/04/26 07:50:21;;;;;;;5.25;2.17;;;;;;;;;;5438936;26;20035;-61
2024/04/26 07:52:48;;;;;;;2.58;2.00;;;;;;;;;;5387527;26;20399;-63
2024/04/26 07:55:14;;;;;;;3.63;2.20;;;;;;;;;;5417450;26;20043;-63
2024/04/26 07:57:40;;;;;;;5.72;2.20;;;;;;;;;;5456721;26;20031;-62
2024/04/26 08:00:06;;;;;;;3.10;1.95;;;;;;;;;;5448168;26;20035;-62
2024/04/26 08:02:33;;;;;;;2.15;1.85;;;;;;;;;;5448512;26;20030;-63
2024/04/26 08:05:01;;;;;;;4.90;2.03;;;;;;;;;;5451528;26;20030;-62
2024/04/26 08:07:29;;;;;;;3.45;1.90;;;;;;;;;;5450831;26;20042;-63
2024/04/26 08:09:55;;;;;;;4.65;2.03;;;;;;;;;;5444874;26;20030;-62
2024/04/26 08:12:21;;;;;;;3.00;2.13;;;;;;;;;;5445798;26;20058;-62
2024/04/26 08:14:47;;;;;;;3.15;1.80;;;;;;;;;;5436472;26;20046;-63
2024/04/26 08:17:14;;;;;;;3.40;2.00;;;;;;;;;;5444440;26;20038;-61
2024/04/26 08:19:40;;;;;;;2.58;2.00;;;;;;;;;;5448226;26;19998;-62
2024/04/26 08:22:06;;;;;;;3.45;2.40;;;;;;;;;;5442914;26;20036;-62
2024/04/26 08:24:32;;;;;;;3.28;2.35;;;;;;;;;;5454009;26;20022;-63
2024/04/26 08:26:59;;;;;;;3.58;2.25;;;;;;;;;;5450566;26;20027;-63
2024/04/26 08:29:25;;;;;;;4.80;2.15;;;;;;;;;;5449290;26;20030;-62
2024/04/26 08:31:53;;;;;;;4.63;1.83;;;;;;;;;;5449166;26;20406;-61
2024/04/26 08:34:23;;;;;;;3.63;2.22;;;;;;;;;;5447890;26;20046;-63
2024/04/26 08:36:50;;;;;;;5.05;2.30;;;;;;;;;;5444372;26;20557;-64
2024/04/26 08:39:16;;;;;;;3.30;2.20;;;;;;;;;;5449099;26;20506;-62
2024/04/26 08:41:42;;;;;;;3.40;1.75;;;;;;;;;;5417704;26;20038;-64
2024/04/26 08:44:10;;;;;;;3.08;2.00;;;;;;;;;;5413911;26;20491;-63
2024/04/26 08:46:37;;;;;;;4.10;1.80;;;;;;;;;;5452738;26;20027;-62
2024/04/26 08:49:03;;;;;;;3.67;1.80;;;;;;;;;;5445471;26;20046;-63
2024/04/26 08:51:31;;;;;;;3.03;1.98;;;;;;;;;;5447071;26;20023;-63
2024/04/26 08:53:58;;;;;;;2.88;2.00;;;;;;;;;;5443769;26;20125;-63
2024/04/26 08:56:25;;;;;;;2.80;1.98;;;;;;;;;;5453138;26;20109;-63
2024/04/26 08:58:54;;;;;;;2.78;1.67;;;;;;;;;;5451207;26;20023;-62
2024/04/26 09:01:21;;;;;;;2.80;1.60;;;;;;;;;;5440066;26;20514;-63
2024/04/26 09:03:49;;;;;;;2.60;1.73;;;;;;;;;;5445032;26;20027;-63
2024/04/26 09:06:16;;;;;;;2.03;1.80;;;;;;;;;;5413843;26;20017;-61
2024/04/26 09:08:42;;;;;;;1.63;1.20;;;;;;;;;;5413588;26;20007;-62
2024/04/26 09:11:15;;;;;;;2.08;1.67;;;;;;;;;;5450890;26;20494;-61
2024/04/26 09:13:42;;;;;;;1.60;1.30;;;;;;;;;;5449239;26;20035;-62
2024/04/26 09:16:08;;;;;;;2.42;1.35;;;;;;;;;;5407500;26;20031;-61
2024/04/26 09:18:34;;;;;;;3.80;1.42;;;;;;;;;;5450813;26;20034;-61
2024/04/26 09:21:02;;;;;;;1.65;1.20;;;;;;;;;;5440220;26;20042;-61
2024/04/26 09:23:28;;;;;;;2.85;1.40;;;;;;;;;;5445287;26;20764;-62
2024/04/26 09:26:04;;;;;;;2.63;1.48;;;;;;;;;;5449810;26;20035;-62
2024/04/26 09:28:31;;;;;;;3.97;1.45;;;;;;;;;;5445896;26;20030;-63
2024/04/26 09:30:58;;;;;;;1.65;1.50;;;;;;;;;;5440200;26;20026;-62
2024/04/26 09:33:27;;;;;;;6.18;1.10;;;;;;;;;;5447718;26;20389;-62
2024/04/26 09:35:54;;;;;;;1.15;1.00;;;;;;;;;;5421100;26;20375;-61
2024/04/26 09:38:22;;;;;;;2.20;1.30;;;;;;;;;;5406757;26;20017;-63
2024/04/26 09:40:52;;;;;;;1.50;1.10;;;;;;;;;;5443991;26;20417;-62
2024/04/26 09:43:18;;;;;;;1.45;0.88;;;;;;;;;;5443308;26;20027;-63
2024/04/26 09:45:45;;;;;;;2.10;1.20;;;;;;;;;;5444514;26;20709;-63
2024/04/26 09:48:12;;;;;;;1.35;1.00;;;;;;;;;;5451107;26;20092;-62
2024/04/26 09:50:39;;;;;;;1.33;1.00;;;;;;;;;;5451354;26;20030;-62
2024/04/26 09:53:06;;;;;;;1.23;1.00;;;;;;;;;;5443667;26;20048;-61
2024/04/26 09:55:33;;;;;;;3.70;1.33;;;;;;;;;;5453488;26;20031;-66
2024/04/26 09:57:59;;;;;;;1.90;1.17;;;;;;;;;;5449248;26;20038;-63
2024/04/26 10:00:28;;;;;;;1.70;1.20;;;;;;;;;;5445834;26;20031;-64
2024/04/26 10:02:59;;;;;;;3.03;1.05;;;;;;;;;;5451267;26;20512;-63
2024/04/26 10:05:26;;;;;;;1.65;1.10;;;;;;;;;;5442802;26;20030;-64
2024/04/26 10:07:59;;;;;;;0.90;0.80;;;;;;;;;;5442006;26;20042;-62
2024/04/26 10:10:33;;;;;;;1.10;1.00;;;;;;;;;;5446082;26;20032;-63
2024/04/26 10:13:10;;;;;;;1.35;1.00;;;;;;;;;;5439059;26;20492;-62
2024/04/26 10:15:37;;;;;;;2.28;1.05;;;;;;;;;;5439152;26;20039;-63
2024/04/26 10:18:04;;;;;;;2.85;0.85;;;;;;;;;;5441841;26;20499;-63
2024/04/26 10:20:48;;;;;;;1.40;0.90;;;;;;;;;;5444836;26;20035;-63
2024/04/26 10:23:15;;;;;;;2.13;1.00;;;;;;;;;;5449194;26;20031;-64
2024/04/26 10:25:42;;;;;;;2.25;1.00;;;;;;;;;;5449396;26;20027;-64
2024/04/26 10:28:10;;;;;;;0.93;0.80;;;;;;;;;;5452028;26;20062;-63
2024/04/26 10:30:45;;;;;;;3.65;1.10;;;;;;;;;;5451417;26;20034;-63
2024/04/26 10:33:12;;;;;;;1.20;1.10;;;;;;;;;;5449914;26;20050;-64
2024/04/26 10:35:39;;;;;;;1.10;1.05;;;;;;;;;;5409472;26;20023;-63
2024/04/26 10:38:08;;;;;;;1.38;1.00;;;;;;;;;;5446579;26;20027;-63
2024/04/26 10:40:50;;;;;;;2.33;0.80;;;;;;;;;;5445067;26;20050;-64
2024/04/26 10:43:27;;;;;;;2.40;1.20;;;;;;;;;;5446724;26;20027;-63
2024/04/26 10:45:55;;;;;;;1.83;1.50;;;;;;;;;;5439004;26;20030;-63
2024/04/26 10:48:22;;;;;;;2.70;1.60;;;;;;;;;;5448662;26;20027;-64
2024/04/26 10:51:05;;;;;;;2.65;1.40;;;;;;;;;;5449950;26;20038;-64
2024/04/26 10:53:33;;;;;;;1.10;1.00;;;;;;;;;;5442986;26;20019;-66
2024/04/26 10:56:03;;;;;;;3.00;0.90;;;;;;;;;;5435057;26;20027;-63
2024/04/26 10:58:38;;;;;;;1.33;1.00;;;;;;;;;;5437927;26;20025;-64
2024/04/26 11:01:05;;;;;;;1.83;1.40;;;;;;;;;;5431061;26;20006;-64
2024/04/26 11:03:31;;;;;;;2.83;1.50;;;;;;;;;;5443857;26;20510;-64
2024/04/26 11:05:58;;;;;;;2.50;1.40;;;;;;;;;;5442257;26;20038;-62
2024/04/26 11:08:27;;;;;;;2.15;1.33;;;;;;;;;;5450466;26;20031;-64
2024/04/26 11:10:54;;;;;;;1.70;1.40;;;;;;;;;;5441342;26;20372;-64
2024/04/26 11:13:23;;;;;;;3.70;2.10;;;;;;;;;;5441094;26;20062;-64
2024/04/26 11:15:53;;;;;;;3.83;1.88;;;;;;;;;;5452265;26;20507;-63
2024/04/26 11:18:22;;;;;;;2.72;1.30;;;;;;;;;;5444514;26;20377;-64
2024/04/26 11:20:48;;;;;;;2.25;1.60;;;;;;;;;;5439143;26;20023;-64
2024/04/26 11:23:14;;;;;;;3.05;1.70;;;;;;;;;;5445051;26;20030;-64
2024/04/26 11:25:40;;;;;;;2.92;1.30;;;;;;;;;;5435259;26;20035;-65
2024/04/26 11:28:06;;;;;;;1.50;1.23;;;;;;;;;;5444637;26;20039;-64
2024/04/26 11:30:32;;;;;;;2.65;1.33;;;;;;;;;;5429016;26;20474;-62
2024/04/26 11:32:59;;;;;;;2.33;1.30;;;;;;;;;;5434294;26;20031;-66
2024/04/26 11:35:25;;;;;;;2.28;1.50;;;;;;;;;;5410575;26;20023;-63
2024/04/26 11:37:51;;;;;;;1.75;1.50;;;;;;;;;;5435572;26;19999;-64
2024/04/26 11:40:19;;;;;;;2.15;1.40;;;;;;;;;;5434941;26;20007;-64
2024/04/26 11:42:45;;;;;;;3.45;1.80;;;;;;;;;;5435850;26;20023;-65
2024/04/26 11:45:11;;;;;;;2.35;1.42;;;;;;;;;;5439677;26;20021;-65
2024/04/26 11:47:37;;;;;;;2.05;1.42;;;;;;;;;;5446964;26;20391;-65
2024/04/26 11:50:05;;;;;;;4.30;1.73;;;;;;;;;;5438251;26;20046;-65
2024/04/26 11:52:31;;;;;;;2.22;1.60;;;;;;;;;;5402529;26;20003;-65
2024/04/26 11:54:58;;;;;;;2.00;1.58;;;;;;;;;;5430117;26;20015;-66
2024/04/26 11:57:24;;;;;;;2.85;1.58;;;;;;;;;;5438002;26;20393;-64
2024/04/26 11:59:50;;;;;;;2.67;1.58;;;;;;;;;;5420943;26;20346;-65
2024/04/26 12:02:20;;;;;;;1.95;1.75;;;;;;;;;;5403969;26;19995;-63
2024/04/26 12:04:47;;;;;;;2.67;1.60;;;;;;;;;;5449449;26;20031;-65
2024/04/26 12:07:14;;;;;;;2.55;1.45;;;;;;;;;;5409017;26;20525;-63
2024/04/26 12:09:40;;;;;;;3.83;1.00;;;;;;;;;;5454046;26;20034;-62
2024/04/26 12:12:06;;;;;;;1.60;1.30;;;;;;;;;;5448316;26;20034;-62
2024/04/26 12:14:32;;;;;;;2.05;1.50;;;;;;;;;;5421822;26;20013;-63
2024/04/26 12:16:58;;;;;;;2.10;1.52;;;;;;;;;;5433375;26;20003;-66
2024/04/26 12:19:25;;;;;;;2.03;1.35;;;;;;;;;;5408522;26;20002;-64
2024/04/26 12:21:55;;;;;;;1.92;1.50;;;;;;;;;;5425372;26;20006;-64
2024/04/26 12:24:21;;;;;;;1.85;1.55;;;;;;;;;;5427981;26;20017;-65
2024/04/26 12:26:47;;;;;;;3.10;1.70;;;;;;;;;;5438085;26;20018;-64
2024/04/26 12:29:13;;;;;;;3.97;2.15;;;;;;;;;;5442078;26;20046;-63
2024/04/26 12:31:39;;;;;;;1.60;1.50;;;;;;;;;;5438013;26;20043;-63
2024/04/26 12:34:05;;;;;;;2.63;1.63;;;;;;;;;;5438594;26;20017;-65
2024/04/26 12:36:32;;;;;;;2.97;2.08;;;;;;;;;;5432279;26;20042;-66
2024/04/26 12:38:59;;;;;;;5.50;2.20;;;;;;;;;;5426157;26;20017;-64
2024/04/26 12:41:25;;;;;;;3.15;1.80;;;;;;;;;;5442693;26;20031;-65
2024/04/26 12:43:52;;;;;;;2.10;1.08;;;;;;;;;;5427312;26;20478;-63
2024/04/26 12:46:18;;;;;;;2.75;1.80;;;;;;;;;;5411827;26;20359;-63
2024/04/26 12:48:44;;;;;;;3.30;1.38;;;;;;;;;;5449863;26;20023;-65
2024/04/26 12:51:10;;;;;;;2.55;1.17;;;;;;;;;;5413004;26;20375;-66
2024/04/26 12:53:37;;;;;;;1.52;0.93;;;;;;;;;;5439466;26;20034;-66
2024/04/26 12:56:03;;;;;;;1.67;0.90;;;;;;;;;;5449913;26;20035;-65
2024/04/26 12:58:33;;;;;;;3.00;1.00;;;;;;;;;;5445402;26;20044;-64
2024/04/26 13:00:59;;;;;;;0.70;0.60;;;;;;;;;;5443468;26;20034;-65
2024/04/26 13:03:25;;;;;;;2.03;0.98;;;;;;;;;;5443128;26;20400;-64
2024/04/26 13:05:51;;;;;;;2.90;0.88;;;;;;;;;;5433859;26;20349;-65
2024/04/26 13:08:19;;;;;;;1.75;0.73;;;;;;;;;;5441730;26;20046;-65
2024/04/26 13:10:45;;;;;;;1.00;0.60;;;;;;;;;;5441750;26;20042;-63
2024/04/26 13:13:11;;;;;;;0.98;0.75;;;;;;;;;;5442932;26;20035;-61
2024/04/26 13:15:37;;;;;;;1.00;0.70;;;;;;;;;;5440297;26;20038;-63
2024/04/26 13:18:07;;;;;;;1.90;0.90;;;;;;;;;;5443203;26;20031;-64
2024/04/26 13:20:33;;;;;;;1.85;0.98;;;;;;;;;;5442038;26;20043;-62
2024/04/26 13:23:03;;;;;;;0.88;0.88;;;;;;;;;;5443537;26;20042;-62
2024/04/26 13:25:29;;;;;;;;;;;;;;;;;;5451412;26;20345;-62
2024/04/26 13:27:55;;;;;;;1.13;0.73;;;;;;;;;;5448980;26;19948;-61
2024/04/26 13:30:22;;;;;;;1.58;0.60;;;;;;;;;;5451761;26;20025;-61
2024/04/26 13:32:49;;;;;;;0.95;0.93;;;;;;;;;;5440319;26;20389;-63
2024/04/26 13:35:15;;;;;;;1.50;1.00;;;;;;;;;;5434843;26;19999;-62
2024/04/26 13:37:41;;;;;;;1.58;0.90;;;;;;;;;;5436901;26;20035;-62
2024/04/26 13:40:07;;;;;;;0.98;0.88;;;;;;;;;;5444268;26;20034;-63
2024/04/26 13:42:33;;;;;;;0.95;0.80;;;;;;;;;;5442941;26;20687;-62
2024/04/26 13:44:59;;;;;;;0.93;0.82;;;;;;;;;;5445825;26;20420;-62
2024/04/26 13:47:26;;;;;;;2.75;1.42;;;;;;;;;;5447207;26;20510;-62
2024/04/26 13:49:52;;;;;;;0.77;0.70;;;;;;;;;;5450709;26;20043;-63
2024/04/26 13:52:18;;;;;;;2.22;1.00;;;;;;;;;;5443522;26;20055;-62
2024/04/26 13:54:45;;;;;;;1.35;0.90;;;;;;;;;;5441534;26;20038;-63
2024/04/26 13:57:12;;;;;;;3.33;1.50;;;;;;;;;;5414859;26;20050;-63
2024/04/26 13:59:39;;;;;;;2.05;1.50;;;;;;;;;;5441019;26;20047;-64
2024/04/26 14:02:05;;;;;;;1.35;1.00;;;;;;;;;;5443178;26;20046;-64
2024/04/26 14:04:32;;;;;;;2.00;1.48;;;;;;;;;;5446699;26;20495;-63
2024/04/26 14:06:58;;;;;;;3.33;1.45;;;;;;;;;;5451283;26;20047;-63
2024/04/26 14:09:24;;;;;;;1.95;1.60;;;;;;;;;;5447479;26;20027;-64
2024/04/26 14:11:50;;;;;;;2.08;1.30;;;;;;;;;;5458465;26;20486;-63
2024/04/26 14:14:16;;;;;;;1.20;1.10;;;;;;;;;;5458750;26;20042;-64
2024/04/26 14:16:43;;;;;;;2.00;1.27;;;;;;;;;;5451483;26;20498;-64
2024/04/26 14:19:09;;;;;;;2.00;1.00;;;;;;;;;;5438895;26;20027;-64
2024/04/26 14:21:35;;;;;;;1.50;1.25;;;;;;;;;;5444301;26;20389;-65
2024/04/26 14:24:01;;;;;;;2.63;1.30;;;;;;;;;;5411316;26;20039;-64
2024/04/26 14:26:28;;;;;;;1.83;1.20;;;;;;;;;;5442710;26;20039;-64
2024/04/26 14:28:54;;;;;;;3.30;1.35;;;;;;;;;;5444178;26;20046;-64
2024/04/26 14:31:21;;;;;;;3.10;1.38;;;;;;;;;;5430694;26;20381;-66
2024/04/26 14:33:48;;;;;;;3.45;1.58;;;;;;;;;;5445364;26;20046;-66
2024/04/26 14:36:15;;;;;;;1.55;1.30;;;;;;;;;;5440369;26;20035;-62
2024/04/26 14:38:41;;;;;;;6.20;1.17;;;;;;;;;;5447186;26;20035;-66
2024/04/26 14:41:08;;;;;;;11.25;2.50;;;;;;;;;;5388754;26;20261;-65